createdAt,value
2017-11-23T00:00:31.248Z,0
2017-11-23T00:01:40.775Z,0
2017-11-23T00:02:50.840Z,0
2017-11-23T00:04:00.652Z,0
2017-11-23T00:05:10.730Z,0
2017-11-23T00:06:20.795Z,0
2017-11-23T00:07:30.847Z,0
2017-11-23T00:08:40.377Z,0
2017-11-23T00:09:50.231Z,0
2017-11-23T00:11:00.298Z,0
2017-11-23T00:12:09.851Z,0
2017-11-23T00:13:19.921Z,0
2017-11-23T00:14:29.726Z,0
2017-11-23T00:15:39.780Z,0
2017-11-23T00:16:49.578Z,0
2017-11-23T00:17:59.393Z,0
2017-11-23T00:19:09.503Z,0
2017-11-23T00:20:19.314Z,0
2017-11-23T00:21:28.919Z,0
2017-11-23T00:22:38.726Z,0
2017-11-23T00:23:48.801Z,0
2017-11-23T00:24:58.875Z,0
2017-11-23T00:26:08.966Z,0
2017-11-23T00:27:19.056Z,0
2017-11-23T00:28:28.853Z,0
2017-11-23T00:29:38.649Z,0
2017-11-23T00:30:48.490Z,0
2017-11-23T00:31:58.284Z,0
2017-11-23T00:33:07.832Z,0
2017-11-23T00:34:17.906Z,0
2017-11-23T00:35:27.992Z,0
2017-11-23T00:36:37.264Z,0
2017-11-23T00:37:47.341Z,0
2017-11-23T00:38:57.370Z,0
2017-11-23T00:40:07.458Z,0
2017-11-23T00:41:17.269Z,0
2017-11-23T00:42:40.100Z,0
2017-11-23T00:43:49.905Z,0
2017-11-23T00:44:59.995Z,0
2017-11-23T00:46:09.821Z,0
2017-11-23T00:47:19.634Z,0
2017-11-23T00:48:29.790Z,0
2017-11-23T00:49:39.931Z,0
2017-11-23T00:50:49.740Z,0
2017-11-23T00:51:59.820Z,0
2017-11-23T00:53:09.611Z,0
2017-11-23T00:54:19.431Z,0
2017-11-23T00:55:28.991Z,0
2017-11-23T00:56:38.838Z,0
2017-11-23T00:57:48.658Z,0
2017-11-23T00:58:58.740Z,0
2017-11-23T01:00:08.820Z,0
2017-11-23T01:01:18.684Z,0
2017-11-23T01:02:28.494Z,0
2017-11-23T01:03:38.574Z,0
2017-11-23T01:04:48.645Z,0
2017-11-23T01:05:58.705Z,0
2017-11-23T01:07:08.777Z,0
2017-11-23T01:08:18.518Z,0
2017-11-23T01:09:28.595Z,0
2017-11-23T01:10:37.876Z,0
2017-11-23T01:11:47.428Z,0
2017-11-23T01:12:57.240Z,0
2017-11-23T01:14:07.312Z,0
2017-11-23T01:15:17.395Z,0
2017-11-23T01:16:27.493Z,0
2017-11-23T01:17:37.573Z,0
2017-11-23T01:18:47.161Z,0
2017-11-23T01:19:57.231Z,0
2017-11-23T01:21:07.297Z,0
2017-11-23T01:22:17.371Z,0
2017-11-23T01:23:27.164Z,0
2017-11-23T01:24:36.725Z,0
2017-11-23T01:25:46.813Z,0
2017-11-23T01:26:56.102Z,0
2017-11-23T01:28:06.169Z,0
2017-11-23T01:29:16.237Z,0
2017-11-23T01:30:26.382Z,0
2017-11-23T01:31:36.445Z,0
2017-11-23T01:32:46.480Z,0
2017-11-23T01:33:56.280Z,0
2017-11-23T01:35:06.363Z,0
2017-11-23T01:36:16.220Z,0
2017-11-23T01:37:26.274Z,0
2017-11-23T01:38:36.338Z,0
2017-11-23T01:39:45.876Z,0
2017-11-23T01:40:55.946Z,0
2017-11-23T01:42:05.757Z,0
2017-11-23T01:43:15.841Z,0
2017-11-23T01:44:25.669Z,0
2017-11-23T01:45:35.742Z,0
2017-11-23T01:46:45.809Z,0
2017-11-23T01:47:55.891Z,0
2017-11-23T01:49:06.052Z,0
2017-11-23T01:50:15.598Z,0
2017-11-23T01:51:25.183Z,0
2017-11-23T01:52:35.244Z,0
2017-11-23T01:53:45.043Z,0
2017-11-23T01:54:54.570Z,0
2017-11-23T01:56:04.653Z,0
2017-11-23T01:57:14.510Z,0
2017-11-23T01:58:24.326Z,0
2017-11-23T01:59:34.150Z,0
2017-11-23T02:00:44.247Z,0
2017-11-23T02:01:54.323Z,0
2017-11-23T02:03:04.205Z,0
2017-11-23T02:04:14.278Z,0
2017-11-23T02:05:24.390Z,0
2017-11-23T02:06:34.185Z,0
2017-11-23T02:07:43.998Z,0
2017-11-23T02:08:53.544Z,0
2017-11-23T02:10:03.357Z,0
2017-11-23T02:11:13.159Z,0
2017-11-23T02:12:22.984Z,0
2017-11-23T02:13:32.798Z,0
2017-11-23T02:14:42.868Z,0
2017-11-23T02:15:52.945Z,0
2017-11-23T02:17:03.027Z,0
2017-11-23T02:18:13.102Z,0
2017-11-23T02:19:23.174Z,0
2017-11-23T02:20:33.291Z,0
2017-11-23T02:21:43.371Z,0
2017-11-23T02:22:52.644Z,0
2017-11-23T02:24:02.723Z,0
2017-11-23T02:25:12.800Z,0
2017-11-23T02:26:22.343Z,0
2017-11-23T02:27:32.409Z,0
2017-11-23T02:28:42.213Z,0
2017-11-23T02:29:52.061Z,0
2017-11-23T02:31:01.891Z,0
2017-11-23T02:32:11.986Z,0
2017-11-23T02:33:22.065Z,0
2017-11-23T02:34:32.154Z,0
2017-11-23T02:35:41.962Z,0
2017-11-23T02:36:51.508Z,0
2017-11-23T02:38:01.320Z,0
2017-11-23T02:39:11.155Z,0
2017-11-23T02:40:21.258Z,0
2017-11-23T02:41:31.329Z,0
2017-11-23T02:42:41.470Z,0
2017-11-23T02:43:51.282Z,0
2017-11-23T02:45:01.387Z,0
2017-11-23T02:46:11.177Z,0
2017-11-23T02:47:21.272Z,0
2017-11-23T02:48:31.150Z,0
2017-11-23T02:49:41.240Z,0
2017-11-23T02:50:51.044Z,0
2017-11-23T02:52:00.857Z,0
2017-11-23T02:53:10.706Z,0
2017-11-23T02:54:20.513Z,0
2017-11-23T02:55:30.324Z,0
2017-11-23T02:56:40.136Z,0
2017-11-23T02:57:50.217Z,0
2017-11-23T02:58:59.760Z,0
2017-11-23T03:00:09.854Z,0
2017-11-23T03:01:19.641Z,0
2017-11-23T03:02:29.720Z,0
2017-11-23T03:34:03.603Z,0
2017-11-23T03:35:13.663Z,0
2017-11-23T03:36:23.443Z,0
2017-11-23T03:37:33.245Z,0
2017-11-23T03:38:44.554Z,0
2017-11-23T03:39:54.652Z,0
2017-11-23T03:41:04.456Z,0
2017-11-23T03:42:14.527Z,0
2017-11-23T03:43:24.606Z,0
2017-11-23T03:44:34.395Z,0
2017-11-23T03:45:44.187Z,0
2017-11-23T03:46:53.998Z,0
2017-11-23T03:48:04.092Z,0
2017-11-23T03:49:13.907Z,0
2017-11-23T03:50:23.978Z,0
2017-11-23T03:51:33.783Z,0
2017-11-23T03:52:43.611Z,0
2017-11-23T03:53:52.883Z,0
2017-11-23T03:55:04.015Z,0
2017-11-23T03:56:13.837Z,0
2017-11-23T03:57:23.988Z,0
2017-11-23T03:58:34.058Z,0
2017-11-23T03:59:44.134Z,0
2017-11-23T04:00:54.213Z,0
2017-11-23T04:02:04.760Z,0
2017-11-23T04:03:14.569Z,0
2017-11-23T04:04:24.388Z,0
2017-11-23T04:05:34.465Z,0
2017-11-23T04:06:44.269Z,0
2017-11-23T04:07:54.341Z,0
2017-11-23T04:09:04.406Z,0
2017-11-23T04:10:14.212Z,0
2017-11-23T04:11:23.759Z,0
2017-11-23T04:12:33.299Z,0
2017-11-23T04:13:43.389Z,0
2017-11-23T04:14:53.200Z,0
2017-11-23T04:16:03.009Z,0
2017-11-23T04:17:13.077Z,0
2017-11-23T04:18:23.155Z,0
2017-11-23T04:19:33.800Z,0
2017-11-23T04:20:43.913Z,0
2017-11-23T04:21:53.735Z,0
2017-11-23T04:23:03.556Z,0
2017-11-23T04:24:13.363Z,0
2017-11-23T04:25:23.172Z,0
2017-11-23T04:26:33.302Z,0
2017-11-23T04:27:43.379Z,0
2017-11-23T04:28:53.189Z,0
2017-11-23T04:30:03.003Z,0
2017-11-23T04:31:13.085Z,0
2017-11-23T04:32:22.876Z,0
2017-11-23T04:33:32.685Z,0
2017-11-23T04:34:42.751Z,0
2017-11-23T04:35:52.821Z,0
2017-11-23T04:37:02.624Z,0
2017-11-23T04:38:12.687Z,0
2017-11-23T04:39:22.762Z,0
2017-11-23T04:40:32.829Z,0
2017-11-23T04:41:42.892Z,0
2017-11-23T04:42:52.716Z,0
2017-11-23T04:44:02.793Z,0
2017-11-23T04:45:12.875Z,0
2017-11-23T04:46:22.681Z,0
2017-11-23T04:47:32.485Z,0
2017-11-23T04:48:42.546Z,0
2017-11-23T04:49:52.634Z,0
2017-11-23T04:51:02.716Z,0
2017-11-23T04:52:12.256Z,0
2017-11-23T04:53:22.329Z,0
2017-11-23T04:54:32.141Z,0
2017-11-23T04:55:42.301Z,0
2017-11-23T04:56:52.353Z,0
2017-11-23T04:58:02.151Z,0
2017-11-23T04:59:12.213Z,0
2017-11-23T05:00:22.286Z,0
2017-11-23T05:01:32.147Z,0
2017-11-23T05:02:41.968Z,0
2017-11-23T05:03:52.039Z,0
2017-11-23T05:05:01.856Z,0
2017-11-23T05:06:11.665Z,0
2017-11-23T05:07:21.213Z,0
2017-11-23T05:08:30.752Z,0
2017-11-23T05:09:40.838Z,0
2017-11-23T05:10:50.912Z,0
2017-11-23T05:12:00.993Z,0
2017-11-23T05:13:10.586Z,0
2017-11-23T05:14:20.696Z,0
2017-11-23T05:15:30.503Z,0
2017-11-23T05:16:40.317Z,0
2017-11-23T05:17:50.126Z,0
2017-11-23T05:19:00.182Z,0
2017-11-23T05:20:09.727Z,0
2017-11-23T05:21:19.539Z,0
2017-11-23T05:22:29.345Z,0
2017-11-23T05:23:39.169Z,0
2017-11-23T05:24:49.236Z,0
2017-11-23T05:25:59.305Z,0
2017-11-23T05:27:08.588Z,0
2017-11-23T05:28:18.667Z,0
2017-11-23T05:29:28.733Z,0
2017-11-23T05:30:38.549Z,0
2017-11-23T05:31:48.367Z,0
2017-11-23T05:32:57.637Z,0
2017-11-23T05:34:07.729Z,0
2017-11-23T05:35:17.848Z,0
2017-11-23T05:36:27.427Z,0
2017-11-23T05:37:36.976Z,0
2017-11-23T05:38:47.051Z,0
2017-11-23T05:39:56.853Z,0
2017-11-23T05:41:06.924Z,0
2017-11-23T05:42:16.468Z,4
2017-11-23T05:43:26.273Z,4
2017-11-23T05:44:36.079Z,0
2017-11-23T05:45:45.898Z,0
2017-11-23T05:46:55.701Z,0
2017-11-23T05:48:05.862Z,4
2017-11-23T05:49:15.664Z,0
2017-11-23T05:50:25.468Z,4
2017-11-23T05:51:35.297Z,4
2017-11-23T05:52:45.093Z,4
2017-11-23T05:53:54.655Z,4
2017-11-23T05:55:04.735Z,8
2017-11-23T05:56:14.528Z,8
2017-11-23T05:57:24.094Z,8
2017-11-23T05:58:34.862Z,8
2017-11-23T05:59:44.399Z,12
2017-11-23T06:00:54.224Z,12
2017-11-23T06:02:04.022Z,16
2017-11-23T06:03:13.572Z,20
2017-11-23T06:04:23.380Z,20
2017-11-23T06:05:33.502Z,24
2017-11-23T06:06:43.033Z,28
2017-11-23T06:07:53.141Z,28
2017-11-23T06:09:02.950Z,32
2017-11-23T06:10:13.027Z,36
2017-11-23T06:11:22.855Z,36
2017-11-23T06:12:32.911Z,36
2017-11-23T06:13:42.735Z,40
2017-11-23T06:14:52.271Z,44
2017-11-23T06:16:02.332Z,48
2017-11-23T06:17:12.444Z,52
2017-11-23T06:18:22.260Z,56
2017-11-23T06:19:32.151Z,60
2017-11-23T06:20:42.461Z,68
2017-11-23T06:21:52.545Z,72
2017-11-23T06:23:02.401Z,80
2017-11-23T06:24:12.216Z,84
2017-11-23T06:25:22.298Z,80
2017-11-23T06:26:32.368Z,88
2017-11-23T06:27:42.458Z,96
2017-11-23T06:28:52.277Z,96
2017-11-23T06:30:02.084Z,108
2017-11-23T06:31:11.891Z,124
2017-11-23T06:32:21.725Z,132
2017-11-23T06:33:31.818Z,140
2017-11-23T06:34:42.049Z,140
2017-11-23T06:35:52.120Z,148
2017-11-23T06:37:01.670Z,160
2017-11-23T06:38:11.486Z,172
2017-11-23T06:39:21.558Z,176
2017-11-23T06:40:31.659Z,192
2017-11-23T06:41:41.468Z,200
2017-11-23T06:42:51.524Z,220
2017-11-23T06:44:01.344Z,236
2017-11-23T06:45:11.143Z,248
2017-11-23T06:46:21.049Z,264
2017-11-23T06:47:31.145Z,280
2017-11-23T06:48:40.681Z,304
2017-11-23T06:49:50.748Z,340
2017-11-23T06:51:00.560Z,364
2017-11-23T06:52:10.417Z,376
2017-11-23T06:53:20.508Z,388
2017-11-23T06:54:30.047Z,400
2017-11-23T06:55:40.147Z,408
2017-11-23T06:56:50.230Z,448
2017-11-23T06:58:00.355Z,452
2017-11-23T06:59:10.433Z,484
2017-11-23T07:00:20.245Z,516
2017-11-23T07:01:30.340Z,556
2017-11-23T07:02:40.402Z,564
2017-11-23T07:03:50.251Z,580
2017-11-23T07:05:00.333Z,600
2017-11-23T07:06:10.152Z,632
2017-11-23T07:07:20.226Z,648
2017-11-23T07:08:29.760Z,664
2017-11-23T07:09:39.567Z,628
2017-11-23T07:10:49.374Z,656
2017-11-23T07:11:59.460Z,648
2017-11-23T07:13:09.543Z,680
2017-11-23T07:14:19.125Z,848
2017-11-23T07:15:29.256Z,984
2017-11-23T07:16:38.794Z,984
2017-11-23T07:17:48.876Z,940
2017-11-23T07:18:58.706Z,1044
2017-11-23T07:20:08.504Z,1024
2017-11-23T07:21:18.328Z,1036
2017-11-23T07:22:28.147Z,1104
2017-11-23T07:23:37.954Z,1180
2017-11-23T07:24:47.515Z,1100
2017-11-23T07:25:57.620Z,1112
2017-11-23T07:27:07.423Z,1200
2017-11-23T07:28:17.515Z,1172
2017-11-23T07:29:27.318Z,1312
2017-11-23T07:30:36.850Z,1428
2017-11-23T07:31:46.941Z,1184
2017-11-23T07:32:57.039Z,988
2017-11-23T07:34:07.129Z,900
2017-11-23T07:35:17.293Z,900
2017-11-23T07:36:27.396Z,928
2017-11-23T07:37:37.456Z,952
2017-11-23T07:38:46.994Z,944
2017-11-23T07:39:56.542Z,904
2017-11-23T07:41:06.389Z,844
2017-11-23T07:42:16.213Z,792
2017-11-23T07:43:26.290Z,864
2017-11-23T07:44:36.154Z,792
2017-11-23T07:45:45.700Z,712
2017-11-23T07:46:55.494Z,744
2017-11-23T07:48:05.568Z,820
2017-11-23T07:49:15.661Z,844
2017-11-23T07:50:25.815Z,892
2017-11-23T07:51:35.614Z,920
2017-11-23T07:52:45.692Z,896
2017-11-23T07:53:55.505Z,1012
2017-11-23T07:55:05.598Z,980
2017-11-23T07:56:15.192Z,1024
2017-11-23T07:57:24.998Z,1032
2017-11-23T07:58:35.064Z,988
2017-11-23T07:59:45.153Z,1020
2017-11-23T08:00:55.634Z,1100
2017-11-23T08:02:05.726Z,1132
2017-11-23T08:03:15.806Z,1144
2017-11-23T08:04:25.637Z,1140
2017-11-23T08:05:34.937Z,1124
2017-11-23T08:06:46.014Z,1072
2017-11-23T08:07:56.149Z,1044
2017-11-23T08:09:06.226Z,1148
2017-11-23T08:10:16.039Z,1208
2017-11-23T08:11:25.855Z,1188
2017-11-23T08:12:35.662Z,1204
2017-11-23T08:13:45.811Z,1232
2017-11-23T08:14:55.081Z,1320
2017-11-23T08:16:05.153Z,1236
2017-11-23T08:17:15.222Z,1248
2017-11-23T08:18:25.335Z,1328
2017-11-23T08:19:35.187Z,1352
2017-11-23T08:20:45.270Z,1400
2017-11-23T08:21:55.338Z,1564
2017-11-23T08:23:04.885Z,1616
2017-11-23T08:24:14.691Z,1760
2017-11-23T08:25:24.547Z,1700
2017-11-23T08:26:35.005Z,1704
2017-11-23T08:27:44.564Z,1572
2017-11-23T08:28:54.382Z,1628
2017-11-23T08:30:03.955Z,1488
2017-11-23T08:31:14.094Z,1560
2017-11-23T08:32:23.639Z,1448
2017-11-23T08:33:33.713Z,1596
2017-11-23T08:34:43.521Z,1816
2017-11-23T08:35:53.332Z,1876
2017-11-23T08:37:02.879Z,1752
2017-11-23T08:38:12.413Z,1856
2017-11-23T08:39:21.954Z,1860
2017-11-23T08:40:31.750Z,1904
2017-11-23T08:41:41.831Z,1812
2017-11-23T08:42:51.715Z,1864
2017-11-23T08:44:01.861Z,1724
2017-11-23T08:45:11.671Z,1584
2017-11-23T08:46:21.538Z,1512
2017-11-23T08:47:31.630Z,1388
2017-11-23T08:48:41.712Z,1340
2017-11-23T08:49:51.524Z,1160
2017-11-23T08:51:01.603Z,1152
2017-11-23T08:52:11.405Z,1060
2017-11-23T08:53:21.498Z,1080
2017-11-23T08:54:31.568Z,1008
2017-11-23T08:55:41.672Z,1036
2017-11-23T08:56:51.755Z,1004
2017-11-23T08:58:01.941Z,1028
2017-11-23T08:59:12.527Z,948
2017-11-23T09:00:22.606Z,956
2017-11-23T09:01:32.161Z,1032
2017-11-23T09:02:42.263Z,1076
2017-11-23T09:03:52.120Z,932
2017-11-23T09:05:02.207Z,1000
2017-11-23T09:06:12.073Z,1040
2017-11-23T09:07:21.628Z,1028
2017-11-23T09:08:31.719Z,1164
2017-11-23T09:09:41.834Z,1172
2017-11-23T09:10:51.957Z,1160
2017-11-23T09:12:02.039Z,1112
2017-11-23T09:13:11.855Z,1124
2017-11-23T09:14:21.940Z,1032
2017-11-23T09:15:32.929Z,1168
2017-11-23T09:16:42.763Z,1324
2017-11-23T09:17:52.904Z,1264
2017-11-23T09:19:02.451Z,1200
2017-11-23T09:20:12.267Z,1180
2017-11-23T09:21:21.827Z,1132
2017-11-23T09:22:31.657Z,1452
2017-11-23T09:23:41.846Z,1440
2017-11-23T09:24:51.922Z,1384
2017-11-23T09:26:01.779Z,1420
2017-11-23T09:27:11.601Z,1400
2017-11-23T09:28:21.682Z,1260
2017-11-23T09:29:31.849Z,1324
2017-11-23T09:30:41.406Z,1108
2017-11-23T09:31:51.497Z,1212
2017-11-23T09:33:01.599Z,1208
2017-11-23T09:34:11.681Z,1184
2017-11-23T09:35:21.803Z,1336
2017-11-23T09:36:31.643Z,1336
2017-11-23T09:37:41.464Z,1240
2017-11-23T09:38:51.532Z,1140
2017-11-23T09:40:01.630Z,1256
2017-11-23T09:41:11.528Z,1248
2017-11-23T09:42:21.364Z,1376
2017-11-23T09:43:31.450Z,1216
2017-11-23T09:44:41.274Z,1360
2017-11-23T09:45:50.826Z,1164
2017-11-23T09:47:00.992Z,1184
2017-11-23T09:48:11.085Z,1288
2017-11-23T09:49:21.182Z,1168
2017-11-23T09:50:30.715Z,1096
2017-11-23T09:51:40.814Z,880
2017-11-23T09:52:50.940Z,924
2017-11-23T09:54:01.053Z,988
2017-11-23T09:55:11.182Z,976
2017-11-23T09:56:21.290Z,1280
2017-11-23T09:57:31.125Z,1280
2017-11-23T09:58:40.993Z,1348
2017-11-23T09:59:50.810Z,1160
2017-11-23T10:01:00.892Z,1240
2017-11-23T10:02:10.979Z,1184
2017-11-23T10:03:21.108Z,1180
2017-11-23T10:04:31.244Z,1196
2017-11-23T10:05:41.314Z,1264
2017-11-23T10:06:51.400Z,1196
2017-11-23T10:08:01.216Z,1168
2017-11-23T10:09:11.032Z,1180
2017-11-23T10:10:21.188Z,1196
2017-11-23T10:11:31.049Z,1196
2017-11-23T10:12:40.879Z,1084
2017-11-23T10:13:50.441Z,1196
2017-11-23T10:15:00.514Z,1152
2017-11-23T10:16:10.603Z,1068
2017-11-23T10:17:20.718Z,996
2017-11-23T10:18:30.557Z,1144
2017-11-23T10:19:40.361Z,1020
2017-11-23T10:20:49.637Z,752
2017-11-23T10:21:59.459Z,660
2017-11-23T10:23:09.287Z,704
2017-11-23T10:24:19.110Z,820
2017-11-23T10:25:28.652Z,1076
2017-11-23T10:26:38.457Z,980
2017-11-23T10:27:48.580Z,1000
2017-11-23T10:28:58.664Z,1180
2017-11-23T10:30:08.762Z,1012
2017-11-23T10:31:18.882Z,1068
2017-11-23T10:32:28.978Z,1060
2017-11-23T10:33:38.788Z,1048
2017-11-23T10:34:48.347Z,1124
2017-11-23T10:35:58.436Z,1136
2017-11-23T10:37:09.255Z,1064
2017-11-23T10:38:19.359Z,1328
2017-11-23T10:39:29.513Z,1260
2017-11-23T10:40:39.071Z,1092
2017-11-23T10:41:48.617Z,932
2017-11-23T10:42:58.444Z,1056
2017-11-23T10:44:08.284Z,1124
2017-11-23T10:45:18.433Z,1192
2017-11-23T10:46:28.533Z,1144
2017-11-23T10:47:38.100Z,1200
2017-11-23T10:48:48.185Z,1228
2017-11-23T10:49:58.315Z,1304
2017-11-23T10:51:08.437Z,1248
2017-11-23T10:52:18.509Z,1260
2017-11-23T10:53:28.600Z,1256
2017-11-23T10:54:38.701Z,1244
2017-11-23T10:55:48.514Z,1328
2017-11-23T10:56:58.104Z,1228
2017-11-23T10:58:07.923Z,1208
2017-11-23T10:59:18.008Z,1352
2017-11-23T11:00:27.832Z,1236
2017-11-23T11:01:37.910Z,1188
2017-11-23T11:02:48.013Z,1184
2017-11-23T11:03:58.104Z,1188
2017-11-23T11:05:07.652Z,1244
2017-11-23T11:06:17.475Z,1220
2017-11-23T11:07:27.276Z,1184
2017-11-23T11:08:37.157Z,1180
2017-11-23T11:09:47.263Z,1132
2017-11-23T11:10:57.341Z,1096
2017-11-23T11:12:07.168Z,1136
2017-11-23T11:13:17.249Z,1096
2017-11-23T11:14:27.376Z,1124
2017-11-23T11:15:37.207Z,1144
2017-11-23T11:16:47.308Z,1136
2017-11-23T11:17:57.135Z,1120
2017-11-23T11:19:07.218Z,1252
2017-11-23T11:20:16.839Z,1288
2017-11-23T11:21:26.677Z,1352
2017-11-23T11:22:36.222Z,1232
2017-11-23T11:23:46.353Z,1240
2017-11-23T11:24:56.462Z,1196
2017-11-23T11:26:06.555Z,1084
2017-11-23T11:27:16.642Z,1008
2017-11-23T11:28:26.716Z,968
2017-11-23T11:29:36.561Z,940
2017-11-23T11:30:46.626Z,912
2017-11-23T11:31:56.730Z,896
2017-11-23T11:33:06.295Z,872
2017-11-23T11:34:16.407Z,940
2017-11-23T11:35:26.237Z,1012
2017-11-23T11:36:36.338Z,1088
2017-11-23T11:37:46.431Z,1084
2017-11-23T11:38:56.278Z,1108
2017-11-23T11:40:06.100Z,1100
2017-11-23T11:41:16.201Z,1104
2017-11-23T11:42:26.076Z,1116
2017-11-23T11:43:36.223Z,1168
2017-11-23T11:44:46.066Z,1068
2017-11-23T11:45:56.144Z,984
2017-11-23T11:47:05.960Z,940
2017-11-23T11:48:16.059Z,916
2017-11-23T11:49:26.203Z,816
2017-11-23T11:50:35.771Z,872
2017-11-23T11:51:45.873Z,840
2017-11-23T11:52:55.690Z,804
2017-11-23T11:54:05.776Z,856
2017-11-23T11:55:15.920Z,952
2017-11-23T11:56:25.999Z,904
2017-11-23T11:57:35.823Z,864
2017-11-23T11:58:45.904Z,824
2017-11-23T11:59:55.450Z,820
2017-11-23T12:01:05.306Z,752
2017-11-23T12:02:15.131Z,752
2017-11-23T12:03:24.689Z,740
2017-11-23T12:04:34.780Z,736
2017-11-23T12:05:44.865Z,740
2017-11-23T12:06:54.996Z,700
2017-11-23T12:08:05.082Z,668
2017-11-23T12:09:14.644Z,668
2017-11-23T12:10:24.465Z,672
2017-11-23T12:11:34.554Z,624
2017-11-23T12:12:44.686Z,668
2017-11-23T12:13:54.777Z,636
2017-11-23T12:15:04.628Z,616
2017-11-23T12:16:14.488Z,584
2017-11-23T12:17:24.573Z,572
2017-11-23T12:18:34.406Z,532
2017-11-23T12:19:44.490Z,488
2017-11-23T12:20:54.318Z,464
2017-11-23T12:22:04.173Z,452
2017-11-23T12:23:14.002Z,428
2017-11-23T12:24:24.088Z,428
2017-11-23T12:25:34.170Z,420
2017-11-23T12:26:43.983Z,404
2017-11-23T12:27:54.063Z,364
2017-11-23T12:29:03.908Z,412
2017-11-23T12:30:13.790Z,452
2017-11-23T12:31:23.943Z,480
2017-11-23T12:32:34.016Z,532
2017-11-23T12:33:44.136Z,624
2017-11-23T12:34:54.218Z,712
2017-11-23T12:36:04.370Z,752
2017-11-23T12:37:14.193Z,792
2017-11-23T12:38:24.286Z,852
2017-11-23T12:39:34.382Z,896
2017-11-23T12:40:44.491Z,900
2017-11-23T12:41:54.368Z,920
2017-11-23T12:43:04.176Z,960
2017-11-23T12:44:14.000Z,1008
2017-11-23T12:45:23.833Z,876
2017-11-23T12:46:33.655Z,768
2017-11-23T12:47:43.539Z,692
2017-11-23T12:48:53.610Z,852
2017-11-23T12:50:04.769Z,936
2017-11-23T12:51:14.850Z,852
2017-11-23T12:52:24.690Z,756
2017-11-23T12:53:34.572Z,652
2017-11-23T12:54:44.673Z,536
2017-11-23T12:55:54.755Z,552
2017-11-23T12:57:04.557Z,612
2017-11-23T12:58:14.099Z,576
2017-11-23T12:59:24.222Z,548
2017-11-23T13:00:34.329Z,592
2017-11-23T13:01:43.869Z,592
2017-11-23T13:02:53.963Z,640
2017-11-23T13:04:04.060Z,668
2017-11-23T13:05:13.963Z,664
2017-11-23T13:06:24.080Z,684
2017-11-23T13:07:33.913Z,768
2017-11-23T13:08:43.739Z,804
2017-11-23T13:09:53.847Z,904
2017-11-23T13:11:04.002Z,924
2017-11-23T13:12:14.096Z,920
2017-11-23T13:13:23.947Z,928
2017-11-23T13:14:34.019Z,932
2017-11-23T13:15:44.109Z,908
2017-11-23T13:16:53.931Z,908
2017-11-23T13:18:03.754Z,988
2017-11-23T13:19:13.578Z,1080
2017-11-23T13:20:23.666Z,1180
2017-11-23T13:21:33.486Z,1204
2017-11-23T13:22:43.078Z,1192
2017-11-23T13:23:53.167Z,1208
2017-11-23T13:25:02.998Z,1308
2017-11-23T13:26:13.072Z,1332
2017-11-23T13:27:23.141Z,1244
2017-11-23T13:28:34.262Z,1364
2017-11-23T13:29:44.404Z,1476
2017-11-23T13:30:54.488Z,1712
2017-11-23T13:32:04.312Z,1636
2017-11-23T13:33:14.367Z,1488
2017-11-23T13:34:24.208Z,1420
2017-11-23T13:35:34.398Z,1460
2017-11-23T13:36:44.479Z,1540
2017-11-23T13:37:54.584Z,1636
2017-11-23T13:39:04.403Z,1796
2017-11-23T13:40:13.982Z,1756
2017-11-23T13:41:23.598Z,1664
2017-11-23T13:42:33.152Z,1500
2017-11-23T13:43:42.692Z,1420
2017-11-23T13:44:52.521Z,1316
2017-11-23T13:46:02.361Z,1396
2017-11-23T13:47:12.505Z,1444
2017-11-23T13:48:22.607Z,1488
2017-11-23T13:49:32.437Z,1800
2017-11-23T13:50:42.560Z,1776
2017-11-23T13:51:52.370Z,1856
2017-11-23T13:53:02.267Z,1856
2017-11-23T13:54:12.332Z,1824
2017-11-23T13:55:22.443Z,1656
2017-11-23T13:56:32.539Z,1616
2017-11-23T13:57:42.362Z,1604
2017-11-23T13:58:52.503Z,1632
2017-11-23T14:00:02.606Z,1784
2017-11-23T14:01:12.439Z,1748
2017-11-23T14:02:22.282Z,1644
2017-11-23T14:03:32.855Z,1568
2017-11-23T14:04:42.772Z,1624
2017-11-23T14:05:52.867Z,1568
2017-11-23T14:07:02.702Z,1696
2017-11-23T14:08:12.784Z,1588
2017-11-23T14:09:22.883Z,1556
2017-11-23T14:10:32.507Z,1392
2017-11-23T14:11:42.322Z,1316
2017-11-23T14:12:51.904Z,1180
2017-11-23T14:14:01.762Z,1100
2017-11-23T14:15:11.842Z,1072
2017-11-23T14:16:21.710Z,1052
2017-11-23T14:17:31.816Z,992
2017-11-23T14:18:41.657Z,956
2017-11-23T14:19:51.766Z,932
2017-11-23T14:21:01.594Z,912
2017-11-23T14:22:11.735Z,896
2017-11-23T14:23:21.837Z,872
2017-11-23T14:24:31.947Z,832
2017-11-23T14:25:41.776Z,784
2017-11-23T14:26:51.858Z,736
2017-11-23T14:28:01.953Z,700
2017-11-23T14:29:11.772Z,664
2017-11-23T14:30:21.877Z,628
2017-11-23T14:31:31.694Z,604
2017-11-23T14:32:41.509Z,592
2017-11-23T14:33:51.323Z,588
2017-11-23T14:35:01.134Z,568
2017-11-23T14:36:10.704Z,552
2017-11-23T14:37:20.824Z,528
2017-11-23T14:38:30.637Z,500
2017-11-23T14:39:40.807Z,476
2017-11-23T14:40:50.916Z,460
2017-11-23T14:42:01.019Z,440
2017-11-23T14:43:11.134Z,424
2017-11-23T14:44:21.229Z,412
2017-11-23T14:45:31.435Z,400
2017-11-23T14:46:41.254Z,396
2017-11-23T14:47:51.343Z,392
2017-11-23T14:49:01.151Z,384
2017-11-23T14:50:10.991Z,368
2017-11-23T14:51:21.129Z,348
2017-11-23T14:52:30.947Z,336
2017-11-23T14:53:41.035Z,320
2017-11-23T14:54:50.855Z,296
2017-11-23T14:56:00.949Z,272
2017-11-23T14:57:10.848Z,252
2017-11-23T14:58:20.943Z,232
2017-11-23T14:59:31.031Z,212
2017-11-23T15:00:42.392Z,192
2017-11-23T15:01:52.492Z,172
2017-11-23T15:03:02.623Z,156
2017-11-23T15:04:12.782Z,140
2017-11-23T15:05:22.873Z,124
2017-11-23T15:06:32.459Z,112
2017-11-23T15:07:42.594Z,96
2017-11-23T15:08:52.764Z,84
2017-11-23T15:10:02.871Z,72
2017-11-23T15:11:12.973Z,64
2017-11-23T15:12:23.082Z,56
2017-11-23T15:13:33.172Z,48
2017-11-23T15:14:43.347Z,40
2017-11-23T15:15:53.213Z,36
2017-11-23T15:17:03.336Z,32
2017-11-23T15:18:13.450Z,28
2017-11-23T15:19:23.267Z,20
2017-11-23T15:20:33.426Z,16
2017-11-23T15:21:43.260Z,16
2017-11-23T15:22:53.360Z,16
2017-11-23T15:24:03.180Z,12
2017-11-23T15:25:12.992Z,8
2017-11-23T15:26:23.097Z,8
2017-11-23T15:27:33.192Z,4
2017-11-23T15:28:43.026Z,8
2017-11-23T15:29:53.103Z,4
2017-11-23T15:31:03.293Z,4
2017-11-23T15:32:13.159Z,4
2017-11-23T15:33:22.713Z,0
2017-11-23T15:34:32.811Z,4
2017-11-23T15:35:42.925Z,4
2017-11-23T15:36:52.509Z,4
2017-11-23T15:38:02.129Z,0
2017-11-23T15:39:11.971Z,0
2017-11-23T15:40:23.059Z,0
2017-11-23T15:41:34.368Z,0
2017-11-23T15:42:44.188Z,0
2017-11-23T15:43:54.012Z,0
2017-11-23T15:45:03.296Z,0
2017-11-23T15:46:13.120Z,0
2017-11-23T15:47:22.949Z,0
2017-11-23T15:48:32.781Z,0
2017-11-23T15:49:42.656Z,0
2017-11-23T15:50:52.754Z,0
2017-11-23T15:52:02.886Z,0
2017-11-23T15:53:12.967Z,0
2017-11-23T15:54:23.049Z,0
2017-11-23T15:55:33.187Z,0
2017-11-23T15:56:43.280Z,0
2017-11-23T15:57:53.364Z,0
2017-11-23T15:59:03.190Z,0
2017-11-23T16:00:13.004Z,0
2017-11-23T16:01:22.899Z,0
2017-11-23T16:02:32.993Z,0
2017-11-23T16:03:43.096Z,0
2017-11-23T16:04:52.908Z,0
2017-11-23T16:06:02.472Z,0
2017-11-23T16:07:12.631Z,0
2017-11-23T16:08:22.459Z,0
2017-11-23T16:09:32.558Z,0
2017-11-23T16:10:42.671Z,0
2017-11-23T16:11:52.238Z,0
2017-11-23T16:13:02.123Z,0
2017-11-23T16:14:12.208Z,0
2017-11-23T16:15:22.311Z,0
2017-11-23T16:16:32.134Z,0
2017-11-23T16:17:42.450Z,0
2017-11-23T16:18:52.593Z,0
2017-11-23T16:20:02.419Z,0
2017-11-23T16:21:12.239Z,0
2017-11-23T16:22:22.333Z,0
2017-11-23T16:23:32.426Z,0
2017-11-23T16:24:42.298Z,0
2017-11-23T16:25:52.414Z,0
2017-11-23T16:27:02.217Z,0
2017-11-23T16:28:12.360Z,0
2017-11-23T16:29:22.441Z,0
2017-11-23T16:30:32.533Z,0
2017-11-23T16:31:42.633Z,0
2017-11-23T16:32:52.754Z,0
2017-11-23T16:34:02.839Z,0
2017-11-23T16:35:12.929Z,0
2017-11-23T16:36:22.755Z,0
2017-11-23T16:37:32.599Z,0
2017-11-23T16:38:42.416Z,0
2017-11-23T16:39:51.981Z,0
2017-11-23T16:41:01.826Z,0
2017-11-23T16:42:11.987Z,0
2017-11-23T16:43:21.565Z,0
2017-11-23T16:44:31.692Z,0
2017-11-23T16:45:41.531Z,0
2017-11-23T16:46:51.373Z,0
2017-11-23T16:48:01.219Z,0
2017-11-23T16:49:11.349Z,0
2017-11-23T16:50:21.432Z,0
2017-11-23T16:51:31.257Z,0
2017-11-23T16:52:41.927Z,0
2017-11-23T16:53:51.819Z,0
2017-11-23T16:55:01.645Z,0